createdAt,value
2017-01-31T00:00:37.508Z,998.51
2017-01-31T00:01:47.246Z,998.52
2017-01-31T00:02:56.539Z,998.5
2017-01-31T00:04:05.828Z,998.55
2017-01-31T00:05:15.610Z,998.61
2017-01-31T00:06:24.927Z,998.57
2017-01-31T00:07:35.108Z,998.59
2017-01-31T00:08:45.281Z,998.6
2017-01-31T00:09:54.571Z,998.57
2017-01-31T00:11:03.912Z,998.62
2017-01-31T00:12:13.209Z,998.61
2017-01-31T00:13:22.958Z,998.6
2017-01-31T00:14:32.698Z,998.59
2017-01-31T00:15:41.988Z,998.62
2017-01-31T00:16:51.333Z,998.65
2017-01-31T00:18:01.507Z,998.62
2017-01-31T00:19:10.803Z,998.69
2017-01-31T00:20:20.093Z,998.64
2017-01-31T00:21:29.387Z,998.7
2017-01-31T00:22:39.185Z,998.71
2017-01-31T00:23:48.916Z,998.69
2017-01-31T00:24:58.649Z,998.69
2017-01-31T00:26:07.933Z,998.74
2017-01-31T00:27:17.663Z,998.72
2017-01-31T00:28:27.444Z,998.73
2017-01-31T00:29:36.738Z,998.74
2017-01-31T00:30:46.486Z,998.78
2017-01-31T00:31:56.216Z,998.81
2017-01-31T00:33:05.950Z,998.78
2017-01-31T00:34:15.301Z,998.77
2017-01-31T00:35:25.035Z,998.8
2017-01-31T00:36:34.333Z,998.8
2017-01-31T00:37:44.066Z,998.79
2017-01-31T00:38:53.805Z,998.8
2017-01-31T00:40:03.584Z,998.8
2017-01-31T00:41:12.873Z,998.78
2017-01-31T00:42:22.611Z,998.81
2017-01-31T00:43:31.937Z,998.83
2017-01-31T00:44:41.672Z,998.82
2017-01-31T00:45:51.018Z,998.86
2017-01-31T00:47:00.756Z,998.81
2017-01-31T00:48:10.049Z,998.79
2017-01-31T00:49:19.349Z,998.8
2017-01-31T00:50:28.651Z,998.82
2017-01-31T00:51:37.997Z,998.85
2017-01-31T00:52:47.736Z,998.82
2017-01-31T00:53:57.898Z,998.85
2017-01-31T00:55:07.192Z,998.86
2017-01-31T00:56:16.928Z,998.85
2017-01-31T00:57:26.274Z,998.87
2017-01-31T00:58:35.558Z,998.88
2017-01-31T00:59:45.736Z,998.9
2017-01-31T01:00:55.030Z,998.9
2017-01-31T01:02:05.213Z,998.91
2017-01-31T01:03:14.555Z,998.94
2017-01-31T01:04:24.735Z,998.97
2017-01-31T01:05:34.908Z,998.96
2017-01-31T01:06:45.082Z,998.98
2017-01-31T01:07:54.811Z,999.04
2017-01-31T01:09:04.157Z,999.06
2017-01-31T01:10:13.888Z,999.1
2017-01-31T01:11:24.067Z,999.11
2017-01-31T01:12:33.801Z,999.1
2017-01-31T01:13:43.100Z,999.1
2017-01-31T01:14:53.323Z,999.13
2017-01-31T01:16:02.617Z,999.16
2017-01-31T01:17:11.916Z,999.15
2017-01-31T01:18:21.210Z,999.17
2017-01-31T01:19:30.503Z,999.17
2017-01-31T01:20:40.729Z,999.16
2017-01-31T01:21:50.030Z,999.19
2017-01-31T01:23:00.647Z,999.21
2017-01-31T01:24:09.936Z,999.2
2017-01-31T01:25:19.669Z,999.23
2017-01-31T01:26:29.456Z,999.29
2017-01-31T01:27:39.218Z,999.33
2017-01-31T01:28:49.389Z,999.35
2017-01-31T01:29:58.691Z,999.37
2017-01-31T01:31:07.979Z,999.36
2017-01-31T01:32:17.764Z,999.39
2017-01-31T01:33:27.062Z,999.37
2017-01-31T01:34:36.350Z,999.38
2017-01-31T01:35:45.648Z,999.39
2017-01-31T01:36:55.404Z,999.45
2017-01-31T01:38:05.192Z,999.37
2017-01-31T01:39:14.917Z,999.46
2017-01-31T01:40:24.231Z,999.45
2017-01-31T01:41:34.402Z,999.42
2017-01-31T01:42:43.701Z,999.5
2017-01-31T01:43:53.496Z,999.43
2017-01-31T01:45:03.230Z,999.44
2017-01-31T01:46:12.965Z,999.48
2017-01-31T01:47:22.688Z,999.46
2017-01-31T01:48:32.421Z,999.49
2017-01-31T01:49:41.766Z,999.52
2017-01-31T01:50:51.502Z,999.49
2017-01-31T01:52:00.788Z,999.54
2017-01-31T01:53:10.524Z,999.49
2017-01-31T01:54:20.258Z,999.52
2017-01-31T01:55:30.036Z,999.51
2017-01-31T01:56:39.792Z,999.55
2017-01-31T01:57:49.522Z,999.55
2017-01-31T01:58:59.699Z,999.56
2017-01-31T02:00:08.997Z,999.56
2017-01-31T02:01:18.338Z,999.56
2017-01-31T02:02:27.630Z,999.52
2017-01-31T02:03:36.921Z,999.53
2017-01-31T02:04:46.212Z,999.55
2017-01-31T02:05:55.506Z,999.55
2017-01-31T02:07:04.848Z,999.58
2017-01-31T02:08:14.140Z,999.53
2017-01-31T02:09:23.435Z,999.58
2017-01-31T02:10:32.727Z,999.56
2017-01-31T02:11:42.016Z,999.58
2017-01-31T02:12:51.802Z,999.52
2017-01-31T02:14:02.139Z,999.57
2017-01-31T02:15:11.438Z,999.54
2017-01-31T02:16:21.173Z,999.55
2017-01-31T02:17:30.910Z,999.58
2017-01-31T02:18:40.286Z,999.61
2017-01-31T02:19:49.577Z,999.61
2017-01-31T02:20:59.750Z,999.64
2017-01-31T02:22:09.056Z,999.64
2017-01-31T02:23:18.357Z,999.68
2017-01-31T02:24:28.129Z,999.66
2017-01-31T02:25:37.864Z,999.69
2017-01-31T02:26:47.152Z,999.7
2017-01-31T02:27:56.447Z,999.68
2017-01-31T02:29:06.618Z,999.7
2017-01-31T02:30:15.967Z,999.67
2017-01-31T02:31:25.260Z,999.65
2017-01-31T02:32:34.552Z,999.67
2017-01-31T02:33:44.278Z,999.69
2017-01-31T02:34:54.024Z,999.72
2017-01-31T02:36:03.805Z,999.71
2017-01-31T02:37:13.086Z,999.78
2017-01-31T02:38:22.379Z,999.78
2017-01-31T02:39:31.672Z,999.81
2017-01-31T02:40:40.970Z,999.84
2017-01-31T02:41:51.195Z,999.82
2017-01-31T02:43:00.492Z,999.83
2017-01-31T02:44:09.782Z,999.81
2017-01-31T02:45:19.513Z,999.84
2017-01-31T02:46:29.723Z,999.85
2017-01-31T02:47:39.505Z,999.87
2017-01-31T02:48:48.801Z,999.81
2017-01-31T02:49:58.535Z,999.85
2017-01-31T02:51:08.271Z,999.87
2017-01-31T02:52:17.576Z,999.84
2017-01-31T02:53:27.362Z,999.87
2017-01-31T02:54:37.100Z,999.87
2017-01-31T02:55:46.385Z,999.88
2017-01-31T02:56:56.562Z,999.92
2017-01-31T02:58:06.295Z,999.93
2017-01-31T02:59:15.640Z,999.96
2017-01-31T03:00:24.935Z,999.95
2017-01-31T03:01:35.119Z,999.91
2017-01-31T03:02:44.408Z,999.95
2017-01-31T03:03:53.699Z,1000
2017-01-31T03:05:04.100Z,1000
2017-01-31T03:06:14.278Z,1000.02
2017-01-31T03:07:24.455Z,1000.01
2017-01-31T03:08:34.187Z,1000.01
2017-01-31T03:09:43.914Z,1000.05
2017-01-31T03:10:53.406Z,1000.03
2017-01-31T03:12:04.023Z,1000.06
2017-01-31T03:13:13.761Z,1000
2017-01-31T03:14:23.498Z,1000.05
2017-01-31T03:15:33.674Z,1000.05
2017-01-31T03:16:43.448Z,1000.07
2017-01-31T03:17:52.739Z,1000.1
2017-01-31T03:19:02.042Z,1000.09
2017-01-31T03:20:12.215Z,1000.1
2017-01-31T03:21:21.948Z,1000.18
2017-01-31T03:22:31.769Z,1000.19
2017-01-31T03:23:41.942Z,1000.18
2017-01-31T03:24:52.116Z,1000.17
2017-01-31T03:26:02.285Z,1000.2
2017-01-31T03:27:12.031Z,1000.23
2017-01-31T03:28:21.809Z,1000.23
2017-01-31T03:29:31.554Z,1000.21
2017-01-31T03:30:41.290Z,1000.24
2017-01-31T03:31:51.018Z,1000.25
2017-01-31T03:33:01.191Z,1000.29
2017-01-31T03:34:10.971Z,1000.29
2017-01-31T03:35:20.266Z,1000.29
2017-01-31T03:36:29.997Z,1000.32
2017-01-31T03:37:39.737Z,1000.31
2017-01-31T03:38:49.466Z,1000.32
2017-01-31T03:39:59.264Z,1000.35
2017-01-31T03:41:08.993Z,1000.37
2017-01-31T03:42:18.730Z,1000.42
2017-01-31T03:43:28.467Z,1000.45
2017-01-31T03:44:38.189Z,1000.44
2017-01-31T03:45:47.984Z,1000.46
2017-01-31T03:46:57.715Z,1000.46
2017-01-31T03:48:07.011Z,1000.46
2017-01-31T03:49:16.744Z,1000.47
2017-01-31T03:50:26.488Z,1000.45
2017-01-31T03:51:36.266Z,1000.45
2017-01-31T03:52:45.999Z,1000.45
2017-01-31T03:53:56.174Z,1000.47
2017-01-31T03:55:05.914Z,1000.5
2017-01-31T03:56:15.647Z,1000.45
2017-01-31T03:57:25.430Z,1000.48
2017-01-31T03:58:34.733Z,1000.5
2017-01-31T03:59:44.466Z,1000.46
2017-01-31T04:00:55.080Z,1000.46
2017-01-31T04:02:04.817Z,1000.48
2017-01-31T04:03:14.600Z,1000.45
2017-01-31T04:04:23.899Z,1000.46
2017-01-31T04:05:33.636Z,1000.51
2017-01-31T04:06:43.368Z,1000.47
2017-01-31T04:07:53.103Z,1000.47
2017-01-31T04:09:02.901Z,1000.51
2017-01-31T04:10:13.074Z,1000.53
2017-01-31T04:11:23.685Z,1000.55
2017-01-31T04:12:33.416Z,1000.52
2017-01-31T04:13:43.590Z,1000.53
2017-01-31T04:14:53.818Z,1000.5
2017-01-31T04:16:03.551Z,1000.5
2017-01-31T04:17:13.725Z,1000.54
2017-01-31T04:18:23.463Z,1000.51
2017-01-31T04:19:33.639Z,1000.5
2017-01-31T04:20:43.439Z,1000.53
2017-01-31T04:21:52.737Z,1000.55
2017-01-31T04:23:02.479Z,1000.57
2017-01-31T04:24:12.208Z,1000.51
2017-01-31T04:25:21.942Z,1000.56
2017-01-31T04:26:32.699Z,1000.54
2017-01-31T04:27:41.983Z,1000.55
2017-01-31T04:28:51.720Z,1000.53
2017-01-31T04:30:01.454Z,1000.54
2017-01-31T04:31:11.188Z,1000.53
2017-01-31T04:32:21.413Z,1000.54
2017-01-31T04:33:31.141Z,1000.56
2017-01-31T04:34:40.875Z,1000.57
2017-01-31T04:35:50.607Z,1000.56
2017-01-31T04:37:00.341Z,1000.55
2017-01-31T04:38:10.152Z,1000.55
2017-01-31T04:39:19.887Z,1000.54
2017-01-31T04:40:29.625Z,1000.6
2017-01-31T04:41:39.802Z,1000.58
2017-01-31T04:42:49.535Z,1000.62
2017-01-31T04:43:59.310Z,1000.63
2017-01-31T04:45:09.046Z,1000.64
2017-01-31T04:46:18.787Z,1000.68
2017-01-31T04:47:28.516Z,1000.7
2017-01-31T04:48:38.258Z,1000.74
2017-01-31T04:49:48.478Z,1000.76
2017-01-31T04:50:58.224Z,1000.77
2017-01-31T04:52:07.961Z,1000.78
2017-01-31T04:53:17.689Z,1000.83
2017-01-31T04:54:27.423Z,1000.86
2017-01-31T04:55:37.643Z,1000.89
2017-01-31T04:56:47.814Z,1000.89
2017-01-31T04:57:57.547Z,1000.91
2017-01-31T04:59:07.716Z,1000.92
2017-01-31T05:00:17.885Z,1000.95
2017-01-31T05:01:27.694Z,1000.91
2017-01-31T05:02:37.425Z,1000.97
2017-01-31T05:03:47.157Z,1000.96
2017-01-31T05:04:56.893Z,1000.96
2017-01-31T05:06:06.616Z,1000.98
2017-01-31T05:07:15.984Z,1001.01
2017-01-31T05:08:25.713Z,1001.01
2017-01-31T05:09:35.446Z,1001.02
2017-01-31T05:10:45.173Z,1001.06
2017-01-31T05:11:54.465Z,1001.09
2017-01-31T05:13:04.246Z,1001.02
2017-01-31T05:14:13.975Z,1001.09
2017-01-31T05:15:24.152Z,1001.11
2017-01-31T05:16:33.886Z,1001.15
2017-01-31T05:17:43.615Z,1001.18
2017-01-31T05:18:53.840Z,1001.22
2017-01-31T05:20:03.577Z,1001.21
2017-01-31T05:21:13.304Z,1001.22
2017-01-31T05:22:22.607Z,1001.18
2017-01-31T05:23:32.345Z,1001.16
2017-01-31T05:24:42.663Z,1001.25
2017-01-31T05:25:52.400Z,1001.23
2017-01-31T05:27:02.141Z,1001.24
2017-01-31T05:28:12.325Z,1001.24
2017-01-31T05:29:22.058Z,1001.2
2017-01-31T05:30:31.932Z,1001.18
2017-01-31T05:31:41.676Z,1001.15
2017-01-31T05:32:51.414Z,1001.09
2017-01-31T05:34:01.147Z,1001.04
2017-01-31T05:35:11.324Z,1001.05
2017-01-31T05:36:21.545Z,1001.05
2017-01-31T05:37:31.719Z,1001.12
2017-01-31T05:38:41.888Z,1001.1
2017-01-31T05:39:51.629Z,1001.15
2017-01-31T05:41:01.358Z,1001.25
2017-01-31T05:42:11.139Z,1001.24
2017-01-31T05:43:20.865Z,1001.25
2017-01-31T05:44:30.153Z,1001.3
2017-01-31T05:45:39.887Z,1001.32
2017-01-31T05:46:49.619Z,1001.3
2017-01-31T05:47:59.993Z,1001.28
2017-01-31T05:49:10.610Z,1001.37
2017-01-31T05:50:20.784Z,1001.39
2017-01-31T05:51:31.396Z,1001.38
2017-01-31T05:52:41.567Z,1001.44
2017-01-31T05:53:50.931Z,1001.44
2017-01-31T05:55:01.549Z,1001.44
2017-01-31T05:56:11.729Z,1001.41
2017-01-31T05:57:21.901Z,1001.45
2017-01-31T05:58:31.670Z,1001.47
2017-01-31T05:59:41.896Z,1001.45
2017-01-31T06:00:52.074Z,1001.5
2017-01-31T06:02:02.262Z,1001.5
2017-01-31T06:03:11.995Z,1001.46
2017-01-31T06:04:21.733Z,1001.49
2017-01-31T06:05:31.508Z,1001.52
2017-01-31T06:06:40.803Z,1001.48
2017-01-31T06:07:50.533Z,1001.5
2017-01-31T06:09:00.703Z,1001.53
2017-01-31T06:10:10.439Z,1001.49
2017-01-31T06:11:20.664Z,1001.49
2017-01-31T06:12:30.840Z,1001.5
2017-01-31T06:13:40.178Z,1001.54
2017-01-31T06:14:49.911Z,1001.5
2017-01-31T06:16:00.089Z,1001.51
2017-01-31T06:17:10.313Z,1001.57
2017-01-31T06:18:20.051Z,1001.56
2017-01-31T06:19:29.779Z,1001.58
2017-01-31T06:20:39.538Z,1001.56
2017-01-31T06:21:49.710Z,1001.6
2017-01-31T06:22:59.927Z,1001.63
2017-01-31T06:24:09.656Z,1001.62
2017-01-31T06:25:19.829Z,1001.62
2017-01-31T06:26:29.563Z,1001.62
2017-01-31T06:27:39.296Z,1001.64
2017-01-31T06:28:49.076Z,1001.63
2017-01-31T06:29:59.250Z,1001.71
2017-01-31T06:31:09.436Z,1001.74
2017-01-31T06:32:18.733Z,1001.77
2017-01-31T06:33:28.465Z,1001.76
2017-01-31T06:34:38.689Z,1001.84
2017-01-31T06:35:48.424Z,1001.82
2017-01-31T06:36:58.153Z,1001.8
2017-01-31T06:38:08.784Z,1001.78
2017-01-31T06:39:18.516Z,1001.77
2017-01-31T06:40:28.749Z,1001.79
2017-01-31T06:41:38.918Z,1001.8
2017-01-31T06:42:48.652Z,1001.83
2017-01-31T06:43:58.385Z,1001.88
2017-01-31T06:45:08.113Z,1001.87
2017-01-31T06:46:17.895Z,1001.84
2017-01-31T06:47:27.626Z,1001.87
2017-01-31T06:48:36.925Z,1001.9
2017-01-31T06:49:47.095Z,1001.88
2017-01-31T06:50:56.821Z,1001.92
2017-01-31T06:52:06.165Z,1001.92
2017-01-31T06:53:15.894Z,1001.91
2017-01-31T06:54:26.069Z,1001.9
2017-01-31T06:55:35.829Z,1001.91
2017-01-31T06:56:46.002Z,1001.9
2017-01-31T06:57:57.108Z,1001.9
2017-01-31T06:59:06.408Z,1001.87
2017-01-31T07:00:16.149Z,1001.95
2017-01-31T07:01:25.882Z,1001.94
2017-01-31T07:02:36.055Z,1001.99
2017-01-31T07:03:45.845Z,1001.99
2017-01-31T07:04:55.574Z,1002.05
2017-01-31T07:06:05.306Z,1002.03
2017-01-31T07:07:15.052Z,1002.03
2017-01-31T07:08:24.785Z,1002.03
2017-01-31T07:09:34.567Z,1002.06
2017-01-31T07:10:45.179Z,1002.04
2017-01-31T07:11:54.905Z,1002.1
2017-01-31T07:13:04.639Z,1002.09
2017-01-31T07:14:14.807Z,1002.12
2017-01-31T07:15:25.136Z,1002.12
2017-01-31T07:16:34.870Z,1002.13
2017-01-31T07:17:45.481Z,1002.15
2017-01-31T07:18:55.212Z,1002.21
2017-01-31T07:20:05.385Z,1002.19
2017-01-31T07:21:15.607Z,1002.2
2017-01-31T07:22:25.787Z,1002.18
2017-01-31T07:23:35.521Z,1002.26
2017-01-31T07:24:45.271Z,1002.3
2017-01-31T07:25:54.999Z,1002.31
2017-01-31T07:27:04.797Z,1002.38
2017-01-31T07:28:14.966Z,1002.36
2017-01-31T07:29:25.135Z,1002.38
2017-01-31T07:30:34.873Z,1002.43
2017-01-31T07:31:44.605Z,1002.48
2017-01-31T07:32:54.387Z,1002.46
2017-01-31T07:34:04.120Z,1002.49
2017-01-31T07:35:14.286Z,1002.57
2017-01-31T07:36:23.578Z,1002.58
2017-01-31T07:37:33.319Z,1002.58
2017-01-31T07:38:43.101Z,1002.62
2017-01-31T07:39:53.275Z,1002.66
2017-01-31T07:41:03.448Z,1002.68
2017-01-31T07:42:12.760Z,1002.66
2017-01-31T07:43:22.515Z,1002.69
2017-01-31T07:44:31.862Z,1002.72
2017-01-31T07:45:42.031Z,1002.7
2017-01-31T07:46:52.221Z,1002.73
2017-01-31T07:48:01.958Z,1002.73
2017-01-31T07:49:11.691Z,1002.76
2017-01-31T07:50:21.916Z,1002.78
2017-01-31T07:51:31.662Z,1002.78
2017-01-31T07:52:41.832Z,1002.77
2017-01-31T07:53:51.581Z,1002.79
2017-01-31T07:55:01.753Z,1002.84
2017-01-31T07:56:11.979Z,1002.82
2017-01-31T07:57:21.708Z,1002.84
2017-01-31T07:58:32.325Z,1002.83
2017-01-31T07:59:42.499Z,1002.83
2017-01-31T08:00:51.791Z,1002.84
2017-01-31T08:02:01.577Z,1002.88
2017-01-31T08:03:11.749Z,1002.86
2017-01-31T08:04:21.487Z,1002.9
2017-01-31T08:05:31.664Z,1002.86
2017-01-31T08:06:41.393Z,1002.83
2017-01-31T08:07:51.619Z,1002.84
2017-01-31T08:09:01.355Z,1002.83
2017-01-31T08:10:11.088Z,1002.82
2017-01-31T08:11:21.266Z,1002.82
2017-01-31T08:12:30.999Z,1002.79
2017-01-31T08:13:40.989Z,1002.81
2017-01-31T08:14:50.732Z,1002.84
2017-01-31T08:16:00.466Z,1002.86
2017-01-31T08:17:10.195Z,1002.86
2017-01-31T08:18:19.929Z,1002.85
2017-01-31T08:19:29.715Z,1002.83
2017-01-31T08:20:39.455Z,1002.84
2017-01-31T08:21:49.199Z,1002.89
2017-01-31T08:22:58.959Z,1002.83
2017-01-31T08:24:08.696Z,1002.85
2017-01-31T08:25:18.476Z,1002.91
2017-01-31T08:26:28.210Z,1002.88
2017-01-31T08:27:38.387Z,1002.9
2017-01-31T08:28:48.119Z,1002.89
2017-01-31T08:29:58.294Z,1002.9
2017-01-31T08:31:08.073Z,1002.91
2017-01-31T08:32:17.805Z,1002.9
2017-01-31T08:33:27.104Z,1002.88
2017-01-31T08:34:37.281Z,1002.91
2017-01-31T08:35:47.015Z,1002.91
2017-01-31T08:36:56.801Z,1002.9
2017-01-31T08:38:06.546Z,1002.91
2017-01-31T08:39:16.278Z,1002.93
2017-01-31T08:40:26.893Z,1002.95
2017-01-31T08:41:36.628Z,1002.94
2017-01-31T08:42:46.850Z,1002.92
2017-01-31T08:43:56.583Z,1002.96
2017-01-31T08:45:06.316Z,1002.93
2017-01-31T08:46:16.494Z,1002.96
2017-01-31T08:47:26.223Z,1002.94
2017-01-31T08:48:36.444Z,1002.95
2017-01-31T08:49:46.181Z,1003.04
2017-01-31T08:50:55.911Z,1002.99
2017-01-31T08:52:06.111Z,1002.99
2017-01-31T08:53:15.847Z,1003.02
2017-01-31T08:54:25.633Z,1003
2017-01-31T08:55:35.811Z,1002.99
2017-01-31T08:56:45.552Z,1003.04
2017-01-31T08:57:55.285Z,1003.03
2017-01-31T08:59:05.455Z,1003.1
2017-01-31T09:00:15.670Z,1003.15
2017-01-31T09:01:24.969Z,1003.18
2017-01-31T09:02:34.694Z,1003.21
2017-01-31T09:03:43.991Z,1003.19
2017-01-31T09:04:53.736Z,1003.17
2017-01-31T09:06:03.533Z,1003.17
2017-01-31T09:07:14.587Z,1003.18
2017-01-31T09:08:25.203Z,1003.18
2017-01-31T09:09:34.944Z,1003.16
2017-01-31T09:10:45.570Z,1003.17
2017-01-31T09:11:55.364Z,1003.17
2017-01-31T09:13:05.097Z,1003.17
2017-01-31T09:14:15.263Z,1003.18
2017-01-31T09:15:24.992Z,1003.19
2017-01-31T09:16:34.732Z,1003.24
2017-01-31T09:17:44.507Z,1003.2
2017-01-31T09:18:53.806Z,1003.23
2017-01-31T09:20:03.988Z,1003.31
2017-01-31T09:21:13.720Z,1003.31
2017-01-31T09:22:23.482Z,1003.33
2017-01-31T09:23:33.712Z,1003.34
2017-01-31T09:24:43.460Z,1003.31
2017-01-31T09:25:53.637Z,1003.32
2017-01-31T09:27:03.810Z,1003.29
2017-01-31T09:28:13.988Z,1003.35
2017-01-31T09:29:23.977Z,1003.35
2017-01-31T09:30:34.146Z,1003.43
2017-01-31T09:31:44.767Z,1003.42
2017-01-31T09:32:54.944Z,1003.49
2017-01-31T09:34:04.683Z,1003.48
2017-01-31T09:35:14.906Z,1003.53
2017-01-31T09:36:24.639Z,1003.55
2017-01-31T09:37:34.812Z,1003.6
2017-01-31T09:38:44.985Z,1003.57
2017-01-31T09:39:54.723Z,1003.52
2017-01-31T09:41:04.508Z,1003.61
2017-01-31T09:42:14.237Z,1003.62
2017-01-31T09:43:23.980Z,1003.64
2017-01-31T09:44:34.607Z,1003.63
2017-01-31T09:45:44.790Z,1003.69
2017-01-31T09:46:55.019Z,1003.7
2017-01-31T09:48:04.307Z,1003.75
2017-01-31T09:49:14.049Z,1003.72
2017-01-31T09:50:23.781Z,1003.78
2017-01-31T09:51:33.954Z,1003.79
2017-01-31T09:52:44.179Z,1003.74
2017-01-31T09:53:54.800Z,1003.8
2017-01-31T09:55:05.422Z,1003.81
2017-01-31T09:56:15.591Z,1003.84
2017-01-31T09:57:25.767Z,1003.82
2017-01-31T09:58:35.553Z,1003.8
2017-01-31T09:59:45.291Z,1003.83
2017-01-31T10:00:55.023Z,1003.8
2017-01-31T10:02:04.761Z,1003.83
2017-01-31T10:03:14.491Z,1003.86
2017-01-31T10:04:24.281Z,1003.87
2017-01-31T10:05:34.022Z,1003.89
2017-01-31T10:06:43.765Z,1003.91
2017-01-31T10:07:53.498Z,1003.89
2017-01-31T10:09:03.232Z,1003.92
2017-01-31T10:10:13.012Z,1003.95
2017-01-31T10:11:23.190Z,1003.91
2017-01-31T10:12:33.806Z,1003.92
2017-01-31T10:13:44.417Z,1003.92
2017-01-31T10:14:55.033Z,1003.89
2017-01-31T10:16:05.255Z,1003.94
2017-01-31T10:17:14.548Z,1003.98
2017-01-31T10:18:24.284Z,1004.02
2017-01-31T10:19:34.022Z,1004.02
2017-01-31T10:20:43.762Z,1004.08
2017-01-31T10:21:53.988Z,1004.08
2017-01-31T10:23:03.725Z,1004.11
2017-01-31T10:24:13.457Z,1004.12
2017-01-31T10:25:23.191Z,1004.12
2017-01-31T10:26:33.808Z,1004.13
2017-01-31T10:27:44.030Z,1004.15
2017-01-31T10:28:53.767Z,1004.15
2017-01-31T10:30:03.500Z,1004.16
2017-01-31T10:31:13.672Z,1004.14
2017-01-31T10:32:23.413Z,1004.16
2017-01-31T10:33:33.198Z,1004.15
2017-01-31T10:34:43.371Z,1004.18
2017-01-31T10:35:53.112Z,1004.19
2017-01-31T10:37:02.845Z,1004.21
2017-01-31T10:38:13.027Z,1004.22
2017-01-31T10:39:22.811Z,1004.2
2017-01-31T10:40:33.425Z,1004.14
2017-01-31T10:41:43.598Z,1004.21
2017-01-31T10:42:53.775Z,1004.19
2017-01-31T10:44:03.521Z,1004.22
2017-01-31T10:45:13.311Z,1004.18
2017-01-31T10:46:23.930Z,1004.17
2017-01-31T10:47:34.104Z,1004.15
2017-01-31T10:48:43.842Z,1004.17
2017-01-31T10:49:53.578Z,1004.16
2017-01-31T10:51:03.364Z,1004.17
2017-01-31T10:52:13.097Z,1004.21
2017-01-31T10:53:23.271Z,1004.2
2017-01-31T10:54:32.563Z,1004.21
2017-01-31T10:55:42.737Z,1004.18
2017-01-31T10:56:52.952Z,1004.21
2017-01-31T10:58:02.243Z,1004.17
2017-01-31T10:59:11.978Z,1004.17
2017-01-31T11:00:21.717Z,1004.17
2017-01-31T11:01:31.455Z,1004.17
2017-01-31T11:02:41.684Z,1004.23
2017-01-31T11:03:51.861Z,1004.21
2017-01-31T11:05:01.595Z,1004.21
2017-01-31T11:06:11.321Z,1004.25
2017-01-31T11:07:21.056Z,1004.24
2017-01-31T11:08:30.841Z,1004.26
2017-01-31T11:09:40.570Z,1004.24
2017-01-31T11:10:50.742Z,1004.29
2017-01-31T11:12:00.478Z,1004.3
2017-01-31T11:13:10.239Z,1004.27
2017-01-31T11:14:20.019Z,1004.3
2017-01-31T11:15:30.192Z,1004.33
2017-01-31T11:16:40.799Z,1004.29
2017-01-31T11:17:50.098Z,1004.32
2017-01-31T11:18:59.834Z,1004.31
2017-01-31T11:20:09.185Z,1004.31
2017-01-31T11:21:18.922Z,1004.35
2017-01-31T11:22:29.099Z,1004.32
2017-01-31T11:23:38.836Z,1004.31
2017-01-31T11:24:49.458Z,1004.34
2017-01-31T11:25:59.279Z,1004.37
2017-01-31T11:27:09.016Z,1004.37
2017-01-31T11:28:19.193Z,1004.32
2017-01-31T11:29:28.935Z,1004.34
2017-01-31T11:30:38.231Z,1004.34
2017-01-31T11:31:48.461Z,1004.39
2017-01-31T11:32:58.633Z,1004.39
2017-01-31T11:34:08.803Z,1004.41
2017-01-31T11:35:18.537Z,1004.42
2017-01-31T11:36:28.268Z,1004.43
2017-01-31T11:37:38.498Z,1004.45
2017-01-31T11:38:48.232Z,1004.42
2017-01-31T11:39:58.405Z,1004.46
2017-01-31T11:41:08.577Z,1004.49
2017-01-31T11:42:18.312Z,1004.47
2017-01-31T11:43:27.660Z,1004.51
2017-01-31T11:44:37.385Z,1004.46
2017-01-31T11:45:47.131Z,1004.47
2017-01-31T11:46:56.861Z,1004.47
2017-01-31T11:48:06.165Z,1004.46
2017-01-31T11:49:15.942Z,1004.46
2017-01-31T11:50:26.119Z,1004.48
2017-01-31T11:51:35.868Z,1004.53
2017-01-31T11:52:46.479Z,1004.54
2017-01-31T11:53:55.774Z,1004.55
2017-01-31T11:55:06.000Z,1004.56
2017-01-31T11:56:16.172Z,1004.58
2017-01-31T11:57:26.349Z,1004.62
2017-01-31T11:58:36.998Z,1004.55
2017-01-31T11:59:46.728Z,1004.58
2017-01-31T12:00:56.513Z,1004.6
2017-01-31T12:02:06.250Z,1004.59
2017-01-31T12:03:16.427Z,1004.63
2017-01-31T12:04:27.044Z,1004.65
2017-01-31T12:05:37.218Z,1004.65
2017-01-31T12:06:47.455Z,1004.67
2017-01-31T12:07:58.513Z,1004.71
2017-01-31T12:09:08.240Z,1004.69
2017-01-31T12:10:18.418Z,1004.77
2017-01-31T12:11:28.595Z,1004.75
2017-01-31T12:12:38.386Z,1004.75
2017-01-31T12:13:48.118Z,1004.77
2017-01-31T12:14:58.291Z,1004.75
2017-01-31T12:16:08.025Z,1004.72
2017-01-31T12:17:17.322Z,1004.74
2017-01-31T12:18:27.991Z,1004.74
2017-01-31T12:19:38.178Z,1004.69
2017-01-31T12:20:47.474Z,1004.72
2017-01-31T12:21:57.203Z,1004.7
2017-01-31T12:23:06.936Z,1004.71
2017-01-31T12:24:16.713Z,1004.77
2017-01-31T12:25:26.444Z,1004.75
2017-01-31T12:26:36.179Z,1004.75
2017-01-31T12:27:46.801Z,1004.8
2017-01-31T12:28:56.977Z,1004.8
2017-01-31T12:30:06.920Z,1004.78
2017-01-31T12:31:17.097Z,1004.76
2017-01-31T12:32:26.835Z,1004.74
2017-01-31T12:33:36.126Z,1004.78
2017-01-31T12:34:45.859Z,1004.77
2017-01-31T12:35:56.089Z,1004.84
2017-01-31T12:37:05.818Z,1004.81
2017-01-31T12:38:16.875Z,1004.82
2017-01-31T12:39:27.048Z,1004.83
2017-01-31T12:40:36.785Z,1004.81
2017-01-31T12:41:46.571Z,1004.85
2017-01-31T12:42:56.300Z,1004.81
2017-01-31T12:44:06.477Z,1004.8
2017-01-31T12:45:16.650Z,1004.83
2017-01-31T12:46:26.818Z,1004.84
2017-01-31T12:47:37.041Z,1004.89
2017-01-31T12:48:46.778Z,1004.87
2017-01-31T12:49:56.536Z,1004.9
2017-01-31T12:51:06.288Z,1004.9
2017-01-31T12:52:15.585Z,1004.94
2017-01-31T12:53:25.371Z,1004.96
2017-01-31T12:54:35.543Z,1004.93
2017-01-31T12:55:45.717Z,1004.95
2017-01-31T12:56:55.899Z,1004.96
2017-01-31T12:58:06.507Z,1004.93
2017-01-31T12:59:16.282Z,1004.93
2017-01-31T13:00:25.574Z,1004.97
2017-01-31T13:01:35.746Z,1004.96
2017-01-31T13:02:45.484Z,1004.97
2017-01-31T13:03:56.535Z,1004.98
2017-01-31T13:05:05.882Z,1005.01
2017-01-31T13:06:16.060Z,1005.01
2017-01-31T13:07:26.241Z,1005.05
2017-01-31T13:08:35.978Z,1005.08
2017-01-31T13:09:45.711Z,1005.05
2017-01-31T13:10:55.488Z,1005.06
2017-01-31T13:12:05.218Z,1005.09
2017-01-31T13:13:14.945Z,1005.13
2017-01-31T13:14:24.245Z,1005.1
2017-01-31T13:15:33.977Z,1005.12
2017-01-31T13:16:44.203Z,1005.17
2017-01-31T13:17:53.944Z,1005.16
2017-01-31T13:19:04.121Z,1005.17
2017-01-31T13:20:14.298Z,1005.18
2017-01-31T13:21:24.471Z,1005.21
2017-01-31T13:22:34.698Z,1005.18
2017-01-31T13:23:44.438Z,1005.15
2017-01-31T13:24:54.171Z,1005.16
2017-01-31T13:26:04.827Z,1005.16
2017-01-31T13:27:14.558Z,1005.16
2017-01-31T13:28:24.347Z,1005.28
2017-01-31T13:29:34.075Z,1005.23
2017-01-31T13:30:43.805Z,1005.32
2017-01-31T13:31:53.539Z,1005.3
2017-01-31T13:33:03.271Z,1005.36
2017-01-31T13:34:13.049Z,1005.36
2017-01-31T13:35:22.348Z,1005.36
2017-01-31T13:36:32.524Z,1005.38
2017-01-31T13:37:42.276Z,1005.36
2017-01-31T13:38:52.892Z,1005.36
2017-01-31T13:40:02.680Z,1005.36
2017-01-31T13:41:12.853Z,1005.37
2017-01-31T13:42:22.585Z,1005.31
2017-01-31T13:43:32.779Z,1005.33
2017-01-31T13:44:42.528Z,1005.35
2017-01-31T13:45:52.744Z,1005.38
2017-01-31T13:47:02.478Z,1005.34
2017-01-31T13:48:12.207Z,1005.39
2017-01-31T13:49:21.496Z,1005.4
2017-01-31T13:50:31.670Z,1005.38
2017-01-31T13:51:42.339Z,1005.41
2017-01-31T13:52:52.956Z,1005.39
2017-01-31T13:54:03.133Z,1005.41
2017-01-31T13:55:12.866Z,1005.4
2017-01-31T13:56:22.604Z,1005.35
2017-01-31T13:57:32.379Z,1005.37
2017-01-31T13:58:42.130Z,1005.36
2017-01-31T13:59:51.863Z,1005.34
2017-01-31T14:01:02.033Z,1005.33
2017-01-31T14:02:12.213Z,1005.35
2017-01-31T14:03:22.441Z,1005.33
2017-01-31T14:04:32.172Z,1005.37
2017-01-31T14:05:41.903Z,1005.38
2017-01-31T14:06:51.635Z,1005.4
2017-01-31T14:08:02.252Z,1005.41
2017-01-31T14:09:12.925Z,1005.41
2017-01-31T14:10:23.098Z,1005.42
2017-01-31T14:11:33.267Z,1005.46
2017-01-31T14:12:43.445Z,1005.45
2017-01-31T14:13:53.620Z,1005.45